Forbes, Australia
Current Conditions -  °F | °C
As of 6:00 AM on Sunday 21 Dec 2014 (Local Time) from YSDU Reporting Station
Clear Clear  
Wind Chill: 63°   Ceiling: Unl
Heat Index: 63°   Visibility: 6mi
Dew Point: 55°   Wind: 12mph
Humidity: 77%   Direction: 100°E
Pressure: 29.97"   Gusts: NA
Location:  33.39°S, 148.01°E
Report Text: YSDU 201900Z AUTO 10010KT 9999 // NCD 17/13 Q1015
Loading
Personal Weather Stations






























Interactive Weather Map New forecast layout! Learn more

10-Day Weather Forecast

Advertisements
Track Severe Weather on mobile